createdAt,value
2023-03-20T00:00:51.384Z,13.07
2023-03-20T00:03:19.764Z,13.20
2023-03-20T00:05:46.713Z,14.40
2023-03-20T00:08:14.195Z,13.63
2023-03-20T00:10:43.740Z,13.77
2023-03-20T00:13:26.322Z,12.55
2023-03-20T00:15:53.711Z,13.40
2023-03-20T00:18:23.156Z,13.00
2023-03-20T00:20:51.237Z,12.90
2023-03-20T00:23:18.220Z,12.70
2023-03-20T00:25:46.778Z,11.98
2023-03-20T00:28:36.642Z,11.85
2023-03-20T00:31:04.544Z,11.30
2023-03-20T00:33:31.587Z,12.50
2023-03-20T00:35:59.209Z,11.13
2023-03-20T00:38:26.436Z,10.48
2023-03-20T00:40:53.332Z,9.80
2023-03-20T00:43:20.157Z,10.20
2023-03-20T00:45:47.154Z,9.35
2023-03-20T00:48:18.828Z,9.93
2023-03-20T00:50:46.269Z,8.43
2023-03-20T00:53:13.221Z,8.57
2023-03-20T00:55:41.291Z,9.05
2023-03-20T00:58:11.540Z,7.53
2023-03-20T01:03:21.521Z,7.88
2023-03-20T01:05:50.121Z,9.05
2023-03-20T01:08:20.387Z,8.13
2023-03-20T01:10:49.832Z,8.30
2023-03-20T01:13:29.492Z,8.10
2023-03-20T01:16:00.542Z,8.00
2023-03-20T01:18:27.790Z,8.18
2023-03-20T01:20:54.607Z,8.10
2023-03-20T01:23:26.757Z,8.93
2023-03-20T01:25:53.582Z,8.45
2023-03-20T01:28:23.863Z,9.68
2023-03-20T01:30:51.369Z,11.75
2023-03-20T01:33:30.364Z,12.35
2023-03-20T01:36:02.070Z,15.68
2023-03-20T01:38:31.304Z,16.63
2023-03-20T01:41:07.130Z,17.90
2023-03-20T01:43:37.470Z,17.10
2023-03-20T01:46:25.864Z,16.40
2023-03-20T01:51:42.797Z,13.85
2023-03-20T01:54:22.249Z,14.00
2023-03-20T01:57:00.493Z,12.82
2023-03-20T01:59:36.953Z,12.05
2023-03-20T02:02:10.472Z,11.25
2023-03-20T02:04:49.446Z,10.15
2023-03-20T02:07:20.341Z,10.23
2023-03-20T02:09:49.427Z,9.57
2023-03-20T02:12:17.687Z,9.57
2023-03-20T02:14:47.083Z,9.13
2023-03-20T02:17:14.366Z,8.48
2023-03-20T02:20:06.134Z,8.68
2023-03-20T02:23:03.879Z,9.20
2023-03-20T02:25:49.808Z,9.38
2023-03-20T02:28:35.124Z,8.65
2023-03-20T02:31:11.151Z,8.50
2023-03-20T02:33:56.704Z,8.55
2023-03-20T02:36:28.151Z,7.97
2023-03-20T02:39:19.390Z,8.30
2023-03-20T02:42:03.487Z,8.50
2023-03-20T02:44:36.522Z,8.02
2023-03-20T02:47:06.549Z,7.82
2023-03-20T02:50:00.862Z,8.10
2023-03-20T02:52:49.535Z,8.38
2023-03-20T02:55:44.232Z,8.25
2023-03-20T02:58:30.852Z,7.68
2023-03-20T03:01:22.580Z,7.70
2023-03-20T03:04:08.925Z,8.27
2023-03-20T03:06:42.673Z,8.55
2023-03-20T03:09:20.454Z,9.25
2023-03-20T03:11:59.752Z,7.60
2023-03-20T03:14:44.316Z,8.13
2023-03-20T03:17:13.828Z,8.13
2023-03-20T03:19:46.529Z,7.65
2023-03-20T03:22:14.143Z,7.40
2023-03-20T03:24:48.821Z,8.45
2023-03-20T03:27:21.429Z,8.00
2023-03-20T03:29:54.098Z,8.32
2023-03-20T03:32:31.817Z,8.00
2023-03-20T03:35:01.684Z,8.40
2023-03-20T03:37:43.263Z,8.13
2023-03-20T03:40:23.646Z,8.20
2023-03-20T03:43:29.351Z,9.90
2023-03-20T03:46:00.414Z,8.55
2023-03-20T03:48:35.082Z,7.47
2023-03-20T03:51:16.741Z,7.57
2023-03-20T03:53:49.880Z,8.45
2023-03-20T03:56:22.033Z,8.32
2023-03-20T03:58:52.738Z,8.45
2023-03-20T04:01:22.889Z,8.60
2023-03-20T04:03:57.644Z,7.95
2023-03-20T04:06:26.922Z,8.38
2023-03-20T04:08:53.889Z,8.07
2023-03-20T04:11:24.241Z,7.97
2023-03-20T04:13:52.352Z,8.13
2023-03-20T04:16:23.152Z,8.85
2023-03-20T04:18:50.628Z,8.07
2023-03-20T04:21:18.683Z,8.30
2023-03-20T04:23:46.095Z,7.97
2023-03-20T04:26:13.392Z,8.63
2023-03-20T04:28:40.257Z,8.65
2023-03-20T04:31:07.539Z,7.75
2023-03-20T04:33:34.580Z,8.23
2023-03-20T04:36:01.618Z,8.73
2023-03-20T04:38:28.465Z,7.72
2023-03-20T04:40:55.403Z,8.13
2023-03-20T04:43:23.172Z,8.80
2023-03-20T04:45:50.010Z,8.75
2023-03-20T04:48:16.869Z,8.98
2023-03-20T04:50:48.284Z,8.55
2023-03-20T04:53:16.355Z,8.70
2023-03-20T04:55:46.412Z,9.30
2023-03-20T04:58:15.345Z,9.93
2023-03-20T05:00:42.482Z,9.48
2023-03-20T05:03:09.417Z,8.98
2023-03-20T05:05:38.143Z,8.45
2023-03-20T05:08:06.613Z,8.27
2023-03-20T05:10:33.712Z,8.63
2023-03-20T05:13:01.363Z,8.75
2023-03-20T05:15:28.429Z,9.02
2023-03-20T05:17:55.579Z,8.38
2023-03-20T05:20:24.258Z,8.32
2023-03-20T05:22:51.491Z,8.85
2023-03-20T05:25:18.569Z,9.82
2023-03-20T05:27:48.115Z,13.95
2023-03-20T05:30:15.490Z,9.50
2023-03-20T05:32:43.790Z,8.30
2023-03-20T05:35:11.896Z,9.70
2023-03-20T05:37:39.481Z,9.10
2023-03-20T05:40:07.298Z,7.57
2023-03-20T05:42:34.432Z,9.35
2023-03-20T05:45:01.434Z,10.90
2023-03-20T05:47:28.334Z,13.27
2023-03-20T05:49:55.596Z,10.80
2023-03-20T05:52:23.223Z,9.52
2023-03-20T05:54:50.301Z,9.80
2023-03-20T05:57:17.696Z,9.82
2023-03-20T05:59:44.605Z,10.60
2023-03-20T06:02:12.366Z,6.75
2023-03-20T06:04:39.926Z,7.63
2023-03-20T06:07:07.724Z,7.07
2023-03-20T06:09:34.658Z,6.88
2023-03-20T06:12:01.537Z,7.13
2023-03-20T06:14:28.403Z,7.00
2023-03-20T06:16:57.093Z,6.13
2023-03-20T06:19:24.272Z,6.60
2023-03-20T06:21:51.463Z,7.20
2023-03-20T06:24:18.695Z,6.25
2023-03-20T06:26:45.573Z,7.38
2023-03-20T06:29:12.542Z,7.18
2023-03-20T06:31:39.620Z,6.65
2023-03-20T06:34:06.581Z,6.22
2023-03-20T06:36:33.680Z,6.53
2023-03-20T06:39:01.070Z,6.30
2023-03-20T06:41:34.661Z,7.00
2023-03-20T06:44:03.746Z,6.28
2023-03-20T06:46:30.819Z,6.85
2023-03-20T06:48:57.775Z,6.40
2023-03-20T06:51:24.701Z,6.72
2023-03-20T06:53:51.534Z,6.00
2023-03-20T06:56:18.486Z,7.03
2023-03-20T06:58:45.902Z,6.47
2023-03-20T07:01:16.726Z,6.18
2023-03-20T07:03:45.181Z,6.38
2023-03-20T07:06:13.640Z,7.75
2023-03-20T07:08:44.799Z,6.40
2023-03-20T07:11:12.071Z,7.05
2023-03-20T07:13:39.035Z,7.13
2023-03-20T07:16:07.497Z,6.82
2023-03-20T07:18:34.614Z,6.28
2023-03-20T07:21:03.894Z,6.47
2023-03-20T07:23:31.746Z,6.13
2023-03-20T07:25:59.434Z,6.45
2023-03-20T07:28:27.134Z,6.90
2023-03-20T07:30:54.540Z,6.88
2023-03-20T07:33:21.548Z,6.05
2023-03-20T07:35:53.751Z,7.07
2023-03-20T07:38:21.548Z,6.68
2023-03-20T07:40:49.110Z,7.13
2023-03-20T07:43:17.060Z,6.30
2023-03-20T07:45:44.095Z,6.40
2023-03-20T07:48:11.226Z,6.25
2023-03-20T07:50:38.131Z,6.57
2023-03-20T07:53:04.956Z,6.03
2023-03-20T07:55:31.784Z,7.18
2023-03-20T07:57:58.677Z,6.05
2023-03-20T08:00:28.052Z,6.47
2023-03-20T08:02:57.104Z,5.90
2023-03-20T08:05:24.440Z,5.72
2023-03-20T08:07:51.538Z,5.65
2023-03-20T08:10:18.741Z,6.60
2023-03-20T08:12:45.769Z,6.50
2023-03-20T08:15:13.387Z,5.93
2023-03-20T08:17:47.045Z,6.80
2023-03-20T08:20:16.298Z,5.90
2023-03-20T08:22:45.032Z,6.05
2023-03-20T08:25:12.181Z,5.70
2023-03-20T08:27:39.054Z,5.38
2023-03-20T08:30:06.653Z,6.30
2023-03-20T08:32:33.701Z,6.05
2023-03-20T08:35:00.797Z,5.72
2023-03-20T08:37:28.488Z,5.97
2023-03-20T08:39:55.589Z,5.95
2023-03-20T08:42:22.655Z,6.28
2023-03-20T08:44:49.625Z,6.30
2023-03-20T08:47:16.678Z,5.25
2023-03-20T08:49:44.049Z,6.18
2023-03-20T08:52:11.264Z,4.93
2023-03-20T08:54:38.233Z,5.25
2023-03-20T08:57:05.328Z,5.00
2023-03-20T08:59:33.146Z,4.65
2023-03-20T09:02:00.543Z,5.10
2023-03-20T09:04:28.018Z,5.28
2023-03-20T09:06:55.455Z,5.13
2023-03-20T09:09:27.405Z,4.97
2023-03-20T09:11:54.191Z,5.63
2023-03-20T09:14:21.159Z,5.45
2023-03-20T09:16:48.074Z,5.40
2023-03-20T09:19:15.417Z,5.15
2023-03-20T09:21:42.372Z,5.00
2023-03-20T09:24:09.603Z,4.63
2023-03-20T09:26:36.846Z,5.18
2023-03-20T09:29:03.987Z,5.32
2023-03-20T09:31:30.986Z,4.88
2023-03-20T09:33:57.895Z,5.38
2023-03-20T09:36:24.662Z,5.43
2023-03-20T09:38:51.813Z,4.70
2023-03-20T09:41:22.786Z,4.40
2023-03-20T09:43:59.051Z,5.00
2023-03-20T09:47:08.725Z,4.95
2023-03-20T09:50:22.338Z,4.93
2023-03-20T09:53:10.806Z,4.63
2023-03-20T09:55:41.694Z,4.85
2023-03-20T09:58:26.135Z,4.63
2023-03-20T10:00:58.364Z,4.70
2023-03-20T10:03:42.085Z,5.60
2023-03-20T10:06:18.012Z,4.03
2023-03-20T10:08:46.347Z,4.32
2023-03-20T10:11:34.430Z,5.38
2023-03-20T10:14:21.881Z,6.22
2023-03-20T10:17:10.111Z,3.97
2023-03-20T10:19:45.893Z,4.28
2023-03-20T10:22:26.248Z,4.82
2023-03-20T10:25:01.430Z,4.32
2023-03-20T10:27:47.121Z,5.00
2023-03-20T10:30:32.675Z,5.30
2023-03-20T10:33:26.889Z,5.25
2023-03-20T10:36:16.006Z,5.38
2023-03-20T10:39:03.078Z,5.57
2023-03-20T10:41:33.766Z,5.35
2023-03-20T10:44:02.484Z,6.00
2023-03-20T10:46:35.739Z,5.40
2023-03-20T10:49:27.237Z,4.82
2023-03-20T10:52:02.542Z,4.60
2023-03-20T10:54:46.095Z,5.55
2023-03-20T10:57:32.018Z,4.65
2023-03-20T10:59:59.703Z,5.10
2023-03-20T11:02:30.790Z,5.38
2023-03-20T11:05:01.913Z,5.47
2023-03-20T11:07:33.180Z,5.50
2023-03-20T11:10:10.372Z,5.32
2023-03-20T11:12:42.360Z,4.88
2023-03-20T11:15:33.138Z,5.38
2023-03-20T11:18:01.442Z,5.28
2023-03-20T11:20:38.451Z,5.22
2023-03-20T11:23:08.538Z,5.97
2023-03-20T11:25:39.726Z,5.50
2023-03-20T11:28:28.536Z,6.13
2023-03-20T11:31:14.643Z,5.32
2023-03-20T11:34:04.981Z,6.05
2023-03-20T11:36:34.800Z,6.18
2023-03-20T11:39:14.974Z,5.82
2023-03-20T11:41:48.120Z,5.78
2023-03-20T11:44:28.243Z,5.93
2023-03-20T11:46:56.767Z,5.57
2023-03-20T11:49:26.134Z,6.38
2023-03-20T11:51:53.827Z,5.88
2023-03-20T11:54:23.640Z,6.80
2023-03-20T11:56:59.226Z,6.18
2023-03-20T11:59:35.100Z,6.00
2023-03-20T12:02:05.075Z,6.57
2023-03-20T12:04:37.786Z,6.53
2023-03-20T12:07:12.715Z,6.05
2023-03-20T12:09:55.074Z,6.72
2023-03-20T12:12:41.321Z,6.53
2023-03-20T12:15:32.138Z,6.05
2023-03-20T12:18:25.242Z,6.35
2023-03-20T12:20:58.265Z,5.80
2023-03-20T12:23:43.831Z,7.38
2023-03-20T12:26:14.964Z,6.32
2023-03-20T12:28:53.891Z,6.07
2023-03-20T12:31:24.054Z,6.93
2023-03-20T12:34:04.452Z,8.02
2023-03-20T12:36:39.194Z,6.07
2023-03-20T12:39:24.795Z,5.13
2023-03-20T12:42:00.872Z,5.60
2023-03-20T12:44:47.443Z,5.07
2023-03-20T12:47:44.948Z,5.15
2023-03-20T12:50:34.937Z,5.50
2023-03-20T12:53:13.896Z,4.95
2023-03-20T12:56:05.194Z,5.00
2023-03-20T12:59:13.937Z,4.38
2023-03-20T13:01:55.733Z,4.05
2023-03-20T13:05:15.481Z,4.80
2023-03-20T13:08:08.743Z,4.47
2023-03-20T13:10:40.030Z,4.72
2023-03-20T13:13:07.167Z,4.72
2023-03-20T13:15:57.159Z,4.00
2023-03-20T13:18:34.267Z,4.20
2023-03-20T13:21:09.255Z,4.82
2023-03-20T13:24:14.024Z,4.20
2023-03-20T13:26:55.577Z,4.57
2023-03-20T13:29:38.262Z,4.03
2023-03-20T13:32:10.348Z,4.40
2023-03-20T13:34:55.084Z,4.25
2023-03-20T13:37:36.168Z,4.57
2023-03-20T13:40:06.283Z,4.07
2023-03-20T13:42:45.975Z,3.92
2023-03-20T13:45:45.619Z,3.90
2023-03-20T13:48:33.418Z,3.75
2023-03-20T13:51:17.920Z,4.60
2023-03-20T13:53:44.994Z,4.45
2023-03-20T13:56:38.588Z,4.05
2023-03-20T13:59:22.917Z,4.63
2023-03-20T14:02:02.281Z,4.53
2023-03-20T14:04:31.922Z,5.00
2023-03-20T14:06:59.950Z,4.18
2023-03-20T14:09:30.060Z,4.78
2023-03-20T14:12:11.465Z,4.07
2023-03-20T14:14:52.611Z,4.50
2023-03-20T14:17:24.983Z,4.65
2023-03-20T14:19:53.931Z,4.20
2023-03-20T14:22:30.058Z,3.85
2023-03-20T14:25:07.480Z,4.18
2023-03-20T14:27:57.892Z,4.53
2023-03-20T14:30:30.990Z,3.40
2023-03-20T14:33:11.879Z,3.83
2023-03-20T14:35:43.398Z,3.58
2023-03-20T14:38:29.057Z,4.22
2023-03-20T14:41:14.112Z,4.45
2023-03-20T14:43:56.822Z,4.38
2023-03-20T14:46:42.707Z,4.80
2023-03-20T14:49:35.684Z,4.60
2023-03-20T14:52:38.993Z,4.35
2023-03-20T14:55:28.475Z,4.68
2023-03-20T14:57:57.309Z,3.90
2023-03-20T15:00:30.905Z,4.20
2023-03-20T15:03:10.672Z,3.88
2023-03-20T15:05:39.671Z,5.75
2023-03-20T15:08:15.948Z,4.32
2023-03-20T15:10:51.199Z,4.38
2023-03-20T15:13:18.544Z,4.68
2023-03-20T15:15:53.281Z,4.10
2023-03-20T15:18:21.826Z,3.97
2023-03-20T15:20:49.261Z,4.38
2023-03-20T15:23:16.165Z,4.95
2023-03-20T15:25:48.608Z,4.93
2023-03-20T15:28:22.617Z,4.80
2023-03-20T15:30:53.630Z,4.43
2023-03-20T15:33:45.747Z,5.50
2023-03-20T15:36:26.382Z,5.57
2023-03-20T15:38:53.903Z,7.00
2023-03-20T15:41:30.684Z,7.28
2023-03-20T15:44:28.321Z,8.02
2023-03-20T15:47:11.639Z,8.68
2023-03-20T15:49:41.260Z,5.93
2023-03-20T15:52:18.376Z,7.43
2023-03-20T15:54:46.061Z,9.27
2023-03-20T15:57:47.276Z,7.28
2023-03-20T16:00:16.982Z,12.30
2023-03-20T16:02:48.553Z,13.43
2023-03-20T16:05:17.702Z,7.72
2023-03-20T16:07:44.606Z,3.13
2023-03-20T16:10:20.249Z,3.20
2023-03-20T16:12:53.068Z,8.90
2023-03-20T16:15:21.130Z,6.20
2023-03-20T16:17:53.788Z,3.47
2023-03-20T16:20:22.482Z,3.15
2023-03-20T16:22:51.458Z,2.65
2023-03-20T16:25:19.137Z,2.67
2023-03-20T16:27:49.183Z,2.70
2023-03-20T16:30:27.073Z,2.85
2023-03-20T16:33:07.084Z,2.63
2023-03-20T16:35:45.222Z,3.17
2023-03-20T16:38:30.167Z,3.50
2023-03-20T16:41:15.020Z,3.40
2023-03-20T16:43:49.551Z,2.88
2023-03-20T16:46:24.916Z,3.83
2023-03-20T16:48:56.670Z,3.58
2023-03-20T16:51:26.550Z,3.53
2023-03-20T16:53:59.390Z,3.88
2023-03-20T16:56:52.968Z,3.45
2023-03-20T16:59:20.646Z,3.88
2023-03-20T17:01:48.616Z,3.72
2023-03-20T17:04:29.481Z,4.05
2023-03-20T17:07:00.475Z,3.75
2023-03-20T17:09:31.939Z,3.80
2023-03-20T17:12:04.955Z,4.63
2023-03-20T17:14:32.185Z,4.22
2023-03-20T17:17:00.320Z,4.03
2023-03-20T17:19:27.405Z,4.85
2023-03-20T17:21:54.713Z,4.18
2023-03-20T17:24:21.754Z,3.63
2023-03-20T17:26:55.266Z,3.65
2023-03-20T17:29:22.403Z,3.42
2023-03-20T17:31:49.494Z,3.55
2023-03-20T17:34:16.549Z,3.70
2023-03-20T17:36:43.569Z,3.08
2023-03-20T17:39:21.064Z,3.60
2023-03-20T17:41:48.012Z,3.17
2023-03-20T17:44:15.016Z,2.70
2023-03-20T17:46:56.751Z,2.92
2023-03-20T17:49:27.944Z,2.65
2023-03-20T17:51:55.870Z,4.15
2023-03-20T17:54:22.726Z,3.83
2023-03-20T17:56:49.581Z,3.55
2023-03-20T17:59:16.518Z,3.00
2023-03-20T18:01:43.502Z,3.28
2023-03-20T18:04:10.649Z,3.63
2023-03-20T18:06:47.713Z,3.08
2023-03-20T18:09:15.429Z,3.78
2023-03-20T18:11:42.264Z,3.72
2023-03-20T18:14:12.447Z,4.20
2023-03-20T18:16:39.740Z,3.53
2023-03-20T18:19:06.645Z,4.35
2023-03-20T18:21:33.529Z,4.00
2023-03-20T18:24:00.564Z,4.05
2023-03-20T18:26:28.311Z,5.10
2023-03-20T18:28:56.194Z,7.43
2023-03-20T18:31:23.420Z,7.35
2023-03-20T18:33:52.134Z,6.90
2023-03-20T18:36:22.324Z,5.80
2023-03-20T18:38:49.974Z,5.53
2023-03-20T18:41:17.256Z,5.45
2023-03-20T18:43:46.620Z,6.82
2023-03-20T18:46:18.904Z,7.63
2023-03-20T18:48:46.658Z,5.82
2023-03-20T18:51:14.408Z,6.75
2023-03-20T18:53:41.957Z,6.40
2023-03-20T18:56:16.236Z,7.18
2023-03-20T18:58:44.484Z,7.18
2023-03-20T19:01:13.020Z,6.55
2023-03-20T19:03:42.764Z,7.30
2023-03-20T19:06:18.531Z,7.88
2023-03-20T19:08:46.376Z,8.13
2023-03-20T19:11:19.705Z,8.65
2023-03-20T19:13:52.372Z,7.10
2023-03-20T19:16:31.820Z,7.55
2023-03-20T19:19:01.651Z,7.68
2023-03-20T19:21:30.761Z,7.35
2023-03-20T19:23:59.828Z,7.50
2023-03-20T19:26:29.200Z,7.35
2023-03-20T19:28:58.829Z,6.47
2023-03-20T19:31:27.128Z,8.15
2023-03-20T19:33:56.214Z,7.95
2023-03-20T19:36:30.918Z,7.63
2023-03-20T19:38:59.976Z,8.27
2023-03-20T19:41:28.941Z,7.57
2023-03-20T19:43:56.979Z,8.35
2023-03-20T19:46:41.871Z,7.75
2023-03-20T19:49:20.991Z,7.07
2023-03-20T19:51:49.076Z,7.05
2023-03-20T19:54:16.351Z,9.23
2023-03-20T19:56:43.399Z,7.40
2023-03-20T19:59:10.424Z,7.10
2023-03-20T20:01:37.448Z,6.72
2023-03-20T20:04:29.606Z,7.57
2023-03-20T20:07:26.251Z,7.75
2023-03-20T20:09:43.612Z,7.78
2023-03-20T20:12:10.455Z,8.18
2023-03-20T20:14:37.324Z,7.95
2023-03-20T20:17:05.103Z,7.50
2023-03-20T20:19:32.400Z,7.38
2023-03-20T20:22:24.735Z,7.40
2023-03-20T20:24:46.518Z,7.22
2023-03-20T20:27:17.812Z,6.78
2023-03-20T20:29:49.995Z,9.10
2023-03-20T20:32:19.318Z,8.27
2023-03-20T20:40:25.994Z,6.75
2023-03-20T20:42:56.278Z,6.70
2023-03-20T20:45:31.015Z,7.00
2023-03-20T20:47:59.133Z,7.15
2023-03-20T20:50:29.125Z,6.10
2023-03-20T20:52:56.951Z,6.00
2023-03-20T20:55:24.982Z,6.82
2023-03-20T20:57:55.474Z,6.43
2023-03-20T21:00:41.091Z,6.32
2023-03-20T21:03:13.531Z,6.90
2023-03-20T21:05:43.523Z,7.45
2023-03-20T21:08:12.084Z,6.68
2023-03-20T21:10:39.966Z,7.40
2023-03-20T21:13:08.379Z,7.18
2023-03-20T21:15:35.730Z,7.05
2023-03-20T21:18:03.111Z,7.03
2023-03-20T21:20:31.870Z,7.22
2023-03-20T21:22:59.176Z,8.07
2023-03-20T21:25:39.220Z,7.30
2023-03-20T21:28:08.173Z,8.27
2023-03-20T21:30:36.007Z,8.35
2023-03-20T21:33:03.701Z,8.23
2023-03-20T21:35:30.808Z,8.80
2023-03-20T21:38:53.383Z,9.45
2023-03-20T21:40:45.318Z,10.88
2023-03-20T21:43:12.561Z,13.45
2023-03-20T21:52:24.708Z,10.40
2023-03-20T21:54:56.415Z,11.65
2023-03-20T21:57:27.887Z,11.68
2023-03-20T22:02:28.041Z,9.82
2023-03-20T22:17:08.728Z,9.32
2023-03-20T22:22:57.018Z,8.73
2023-03-20T22:39:12.684Z,7.88
2023-03-20T22:42:09.520Z,9.45
2023-03-20T22:46:54.473Z,8.23
2023-03-20T22:49:21.467Z,8.85
2023-03-20T22:52:05.061Z,8.27
2023-03-20T22:54:35.316Z,8.50
2023-03-20T22:57:02.639Z,8.65
2023-03-20T22:59:29.476Z,8.43
2023-03-20T23:01:56.577Z,8.50
2023-03-20T23:04:24.206Z,8.80
2023-03-20T23:06:51.330Z,9.05
2023-03-20T23:09:32.615Z,9.95
2023-03-20T23:11:59.547Z,9.43
2023-03-20T23:14:28.569Z,9.02
2023-03-20T23:16:57.549Z,9.35
2023-03-20T23:19:25.406Z,9.00
2023-03-20T23:21:52.304Z,9.18
2023-03-20T23:24:20.494Z,9.18
2023-03-20T23:26:47.640Z,8.63
2023-03-20T23:29:14.785Z,8.77
2023-03-20T23:31:41.700Z,8.80
2023-03-20T23:34:08.680Z,9.43
2023-03-20T23:36:37.484Z,7.70
2023-03-20T23:39:10.470Z,7.60
2023-03-20T23:44:25.035Z,7.55
2023-03-20T23:46:51.971Z,8.68
2023-03-20T23:49:18.840Z,8.18
2023-03-20T23:51:46.342Z,7.25
2023-03-20T23:54:13.590Z,8.55
2023-03-20T23:56:40.727Z,7.88
2023-03-20T23:59:20.665Z,8.40
